sensor_id;sensor_type;location;lat;lon;timestamp;P1;durP1;ratioP1;P2;durP2;ratioP2
9248;SDS011;4660;41.768;26.198;2022-07-29T00:00:41;2.58;;;2.38;;
9248;SDS011;4660;41.768;26.198;2022-07-29T00:03:12;4.60;;;2.65;;
9248;SDS011;4660;41.768;26.198;2022-07-29T00:05:39;3.78;;;2.50;;
9248;SDS011;4660;41.768;26.198;2022-07-29T00:08:05;4.55;;;2.90;;
9248;SDS011;4660;41.768;26.198;2022-07-29T00:10:31;5.45;;;2.88;;
9248;SDS011;4660;41.768;26.198;2022-07-29T00:12:56;3.03;;;2.83;;
9248;SDS011;4660;41.768;26.198;2022-07-29T00:15:22;2.33;;;2.13;;
9248;SDS011;4660;41.768;26.198;2022-07-29T00:17:47;4.30;;;2.65;;
9248;SDS011;4660;41.768;26.198;2022-07-29T00:20:13;5.63;;;2.58;;
9248;SDS011;4660;41.768;26.198;2022-07-29T00:22:39;2.20;;;2.10;;
9248;SDS011;4660;41.768;26.198;2022-07-29T00:25:05;2.97;;;2.60;;
9248;SDS011;4660;41.768;26.198;2022-07-29T00:27:32;3.08;;;2.58;;
9248;SDS011;4660;41.768;26.198;2022-07-29T00:29:57;2.70;;;2.50;;
9248;SDS011;4660;41.768;26.198;2022-07-29T00:32:23;3.47;;;2.88;;
9248;SDS011;4660;41.768;26.198;2022-07-29T00:34:48;2.47;;;2.20;;
9248;SDS011;4660;41.768;26.198;2022-07-29T00:37:32;3.35;;;2.63;;
9248;SDS011;4660;41.768;26.198;2022-07-29T00:39:58;3.22;;;2.70;;
9248;SDS011;4660;41.768;26.198;2022-07-29T00:42:24;4.90;;;2.80;;
9248;SDS011;4660;41.768;26.198;2022-07-29T00:44:49;3.70;;;3.00;;
9248;SDS011;4660;41.768;26.198;2022-07-29T00:47:15;4.15;;;2.40;;
9248;SDS011;4660;41.768;26.198;2022-07-29T00:49:41;3.08;;;2.85;;
9248;SDS011;4660;41.768;26.198;2022-07-29T00:52:07;2.75;;;2.53;;
9248;SDS011;4660;41.768;26.198;2022-07-29T00:54:35;3.30;;;3.00;;
9248;SDS011;4660;41.768;26.198;2022-07-29T00:57:01;6.72;;;2.97;;
9248;SDS011;4660;41.768;26.198;2022-07-29T00:59:27;3.42;;;3.05;;
9248;SDS011;4660;41.768;26.198;2022-07-29T01:01:53;3.45;;;2.97;;
9248;SDS011;4660;41.768;26.198;2022-07-29T01:04:20;3.35;;;2.80;;
9248;SDS011;4660;41.768;26.198;2022-07-29T01:06:47;3.33;;;2.90;;
9248;SDS011;4660;41.768;26.198;2022-07-29T01:09:14;4.50;;;2.90;;
9248;SDS011;4660;41.768;26.198;2022-07-29T01:11:42;3.65;;;3.08;;
9248;SDS011;4660;41.768;26.198;2022-07-29T01:14:08;2.92;;;2.72;;
9248;SDS011;4660;41.768;26.198;2022-07-29T01:16:40;4.25;;;3.03;;
9248;SDS011;4660;41.768;26.198;2022-07-29T01:30:09;4.95;;;2.90;;
9248;SDS011;4660;41.768;26.198;2022-07-29T01:32:36;3.55;;;3.25;;
9248;SDS011;4660;41.768;26.198;2022-07-29T01:35:08;5.35;;;2.97;;
9248;SDS011;4660;41.768;26.198;2022-07-29T01:42:54;4.50;;;3.35;;
9248;SDS011;4660;41.768;26.198;2022-07-29T01:45:56;3.53;;;3.17;;
9248;SDS011;4660;41.768;26.198;2022-07-29T01:48:22;3.67;;;3.38;;
9248;SDS011;4660;41.768;26.198;2022-07-29T01:51:04;4.88;;;3.45;;
9248;SDS011;4660;41.768;26.198;2022-07-29T01:53:42;6.80;;;3.35;;
9248;SDS011;4660;41.768;26.198;2022-07-29T01:56:16;3.92;;;3.35;;
9248;SDS011;4660;41.768;26.198;2022-07-29T01:58:43;3.60;;;3.20;;
9248;SDS011;4660;41.768;26.198;2022-07-29T02:01:11;3.50;;;3.20;;
9248;SDS011;4660;41.768;26.198;2022-07-29T02:03:40;5.53;;;3.70;;
9248;SDS011;4660;41.768;26.198;2022-07-29T02:06:10;4.45;;;3.33;;
9248;SDS011;4660;41.768;26.198;2022-07-29T02:08:37;4.63;;;3.20;;
9248;SDS011;4660;41.768;26.198;2022-07-29T02:11:04;5.95;;;3.72;;
9248;SDS011;4660;41.768;26.198;2022-07-29T02:13:32;5.18;;;3.50;;
9248;SDS011;4660;41.768;26.198;2022-07-29T02:16:01;5.28;;;3.80;;
9248;SDS011;4660;41.768;26.198;2022-07-29T02:18:30;6.15;;;4.07;;
9248;SDS011;4660;41.768;26.198;2022-07-29T02:20:58;6.35;;;3.65;;
9248;SDS011;4660;41.768;26.198;2022-07-29T02:23:25;4.13;;;3.63;;
9248;SDS011;4660;41.768;26.198;2022-07-29T02:25:52;3.92;;;3.47;;
9248;SDS011;4660;41.768;26.198;2022-07-29T02:28:20;6.47;;;3.60;;
9248;SDS011;4660;41.768;26.198;2022-07-29T02:30:48;3.97;;;3.67;;
9248;SDS011;4660;41.768;26.198;2022-07-29T02:33:17;5.68;;;3.40;;
9248;SDS011;4660;41.768;26.198;2022-07-29T02:35:44;7.72;;;3.80;;
9248;SDS011;4660;41.768;26.198;2022-07-29T02:38:13;5.47;;;3.83;;
9248;SDS011;4660;41.768;26.198;2022-07-29T02:41:00;6.07;;;3.40;;
9248;SDS011;4660;41.768;26.198;2022-07-29T02:43:29;5.88;;;3.67;;
9248;SDS011;4660;41.768;26.198;2022-07-29T02:45:56;4.68;;;3.90;;
9248;SDS011;4660;41.768;26.198;2022-07-29T02:48:27;4.15;;;3.80;;
9248;SDS011;4660;41.768;26.198;2022-07-29T02:51:12;3.78;;;3.47;;
9248;SDS011;4660;41.768;26.198;2022-07-29T02:53:44;9.40;;;4.45;;
9248;SDS011;4660;41.768;26.198;2022-07-29T02:56:14;4.43;;;4.03;;
9248;SDS011;4660;41.768;26.198;2022-07-29T02:58:49;5.80;;;3.70;;
9248;SDS011;4660;41.768;26.198;2022-07-29T03:01:23;4.05;;;3.65;;
9248;SDS011;4660;41.768;26.198;2022-07-29T03:03:51;6.90;;;3.97;;
9248;SDS011;4660;41.768;26.198;2022-07-29T03:06:19;4.13;;;3.60;;
9248;SDS011;4660;41.768;26.198;2022-07-29T03:08:46;4.40;;;4.00;;
9248;SDS011;4660;41.768;26.198;2022-07-29T03:11:12;5.22;;;3.75;;
9248;SDS011;4660;41.768;26.198;2022-07-29T03:13:40;5.82;;;4.22;;
9248;SDS011;4660;41.768;26.198;2022-07-29T03:16:06;4.32;;;3.92;;
9248;SDS011;4660;41.768;26.198;2022-07-29T03:18:33;5.15;;;4.07;;
9248;SDS011;4660;41.768;26.198;2022-07-29T03:21:00;8.43;;;5.22;;
9248;SDS011;4660;41.768;26.198;2022-07-29T03:23:26;4.55;;;4.25;;
9248;SDS011;4660;41.768;26.198;2022-07-29T03:25:53;7.88;;;4.78;;
9248;SDS011;4660;41.768;26.198;2022-07-29T03:28:19;5.45;;;4.00;;
9248;SDS011;4660;41.768;26.198;2022-07-29T03:30:46;5.30;;;4.90;;
9248;SDS011;4660;41.768;26.198;2022-07-29T03:33:11;7.35;;;4.15;;
9248;SDS011;4660;41.768;26.198;2022-07-29T03:35:37;7.25;;;4.13;;
9248;SDS011;4660;41.768;26.198;2022-07-29T03:38:03;4.90;;;4.40;;
9248;SDS011;4660;41.768;26.198;2022-07-29T03:40:33;6.93;;;6.22;;
9248;SDS011;4660;41.768;26.198;2022-07-29T03:43:03;6.15;;;5.50;;
9248;SDS011;4660;41.768;26.198;2022-07-29T03:45:32;7.43;;;5.78;;
9248;SDS011;4660;41.768;26.198;2022-07-29T03:48:01;6.30;;;5.00;;
9248;SDS011;4660;41.768;26.198;2022-07-29T03:50:30;6.90;;;4.70;;
9248;SDS011;4660;41.768;26.198;2022-07-29T03:52:59;5.15;;;4.35;;
9248;SDS011;4660;41.768;26.198;2022-07-29T03:55:25;8.05;;;4.68;;
9248;SDS011;4660;41.768;26.198;2022-07-29T03:57:53;4.88;;;4.20;;
9248;SDS011;4660;41.768;26.198;2022-07-29T04:00:22;5.57;;;4.70;;
9248;SDS011;4660;41.768;26.198;2022-07-29T04:02:49;6.65;;;4.85;;
9248;SDS011;4660;41.768;26.198;2022-07-29T04:05:16;5.22;;;4.55;;
9248;SDS011;4660;41.768;26.198;2022-07-29T04:07:45;6.60;;;5.13;;
9248;SDS011;4660;41.768;26.198;2022-07-29T04:10:12;10.43;;;7.47;;
9248;SDS011;4660;41.768;26.198;2022-07-29T04:12:40;8.45;;;6.07;;
9248;SDS011;4660;41.768;26.198;2022-07-29T04:15:06;5.47;;;4.53;;
9248;SDS011;4660;41.768;26.198;2022-07-29T04:17:33;8.10;;;4.10;;
9248;SDS011;4660;41.768;26.198;2022-07-29T04:19:58;4.55;;;4.15;;
9248;SDS011;4660;41.768;26.198;2022-07-29T04:22:24;4.90;;;4.40;;
9248;SDS011;4660;41.768;26.198;2022-07-29T04:24:50;6.60;;;5.05;;
9248;SDS011;4660;41.768;26.198;2022-07-29T04:27:15;7.78;;;4.85;;
9248;SDS011;4660;41.768;26.198;2022-07-29T04:29:41;5.60;;;4.68;;
9248;SDS011;4660;41.768;26.198;2022-07-29T04:32:06;4.97;;;4.35;;
9248;SDS011;4660;41.768;26.198;2022-07-29T04:34:32;5.03;;;4.53;;
9248;SDS011;4660;41.768;26.198;2022-07-29T04:36:58;4.63;;;4.18;;
9248;SDS011;4660;41.768;26.198;2022-07-29T04:39:24;5.13;;;4.40;;
9248;SDS011;4660;41.768;26.198;2022-07-29T04:41:50;5.70;;;4.57;;
9248;SDS011;4660;41.768;26.198;2022-07-29T04:44:15;5.40;;;4.75;;
9248;SDS011;4660;41.768;26.198;2022-07-29T04:46:41;5.47;;;4.75;;
9248;SDS011;4660;41.768;26.198;2022-07-29T04:49:06;7.25;;;4.70;;
9248;SDS011;4660;41.768;26.198;2022-07-29T04:51:32;5.25;;;4.63;;
9248;SDS011;4660;41.768;26.198;2022-07-29T04:53:58;5.13;;;4.30;;
9248;SDS011;4660;41.768;26.198;2022-07-29T04:56:24;4.68;;;4.22;;
9248;SDS011;4660;41.768;26.198;2022-07-29T04:58:49;5.18;;;4.70;;
9248;SDS011;4660;41.768;26.198;2022-07-29T05:01:15;10.23;;;4.72;;
9248;SDS011;4660;41.768;26.198;2022-07-29T05:03:41;7.18;;;4.95;;
9248;SDS011;4660;41.768;26.198;2022-07-29T05:06:07;6.70;;;4.55;;
9248;SDS011;4660;41.768;26.198;2022-07-29T05:08:32;4.72;;;4.22;;
9248;SDS011;4660;41.768;26.198;2022-07-29T05:10:58;6.63;;;5.05;;
9248;SDS011;4660;41.768;26.198;2022-07-29T05:13:23;4.78;;;4.25;;
9248;SDS011;4660;41.768;26.198;2022-07-29T05:15:49;4.95;;;4.50;;
9248;SDS011;4660;41.768;26.198;2022-07-29T05:18:15;5.00;;;4.50;;
9248;SDS011;4660;41.768;26.198;2022-07-29T05:20:41;6.80;;;5.03;;
9248;SDS011;4660;41.768;26.198;2022-07-29T05:23:07;6.95;;;4.38;;
9248;SDS011;4660;41.768;26.198;2022-07-29T05:25:32;7.13;;;4.60;;
9248;SDS011;4660;41.768;26.198;2022-07-29T05:27:58;5.57;;;4.60;;
9248;SDS011;4660;41.768;26.198;2022-07-29T05:30:24;4.93;;;4.18;;
9248;SDS011;4660;41.768;26.198;2022-07-29T05:32:50;5.00;;;4.05;;
9248;SDS011;4660;41.768;26.198;2022-07-29T05:35:16;9.15;;;4.43;;
9248;SDS011;4660;41.768;26.198;2022-07-29T05:37:42;9.70;;;4.47;;
9248;SDS011;4660;41.768;26.198;2022-07-29T05:40:08;4.55;;;3.97;;
9248;SDS011;4660;41.768;26.198;2022-07-29T05:42:34;6.40;;;4.30;;
9248;SDS011;4660;41.768;26.198;2022-07-29T05:45:00;6.63;;;3.72;;
9248;SDS011;4660;41.768;26.198;2022-07-29T05:47:26;8.02;;;3.35;;
9248;SDS011;4660;41.768;26.198;2022-07-29T05:49:53;4.85;;;3.92;;
9248;SDS011;4660;41.768;26.198;2022-07-29T05:52:19;4.25;;;3.58;;
9248;SDS011;4660;41.768;26.198;2022-07-29T05:54:45;4.60;;;3.80;;
9248;SDS011;4660;41.768;26.198;2022-07-29T05:57:17;6.63;;;3.80;;
9248;SDS011;4660;41.768;26.198;2022-07-29T05:59:45;4.43;;;3.55;;
9248;SDS011;4660;41.768;26.198;2022-07-29T06:02:10;5.60;;;3.13;;
9248;SDS011;4660;41.768;26.198;2022-07-29T06:04:36;3.78;;;3.47;;
9248;SDS011;4660;41.768;26.198;2022-07-29T06:07:02;4.70;;;3.47;;
9248;SDS011;4660;41.768;26.198;2022-07-29T06:09:28;5.05;;;3.65;;
9248;SDS011;4660;41.768;26.198;2022-07-29T06:11:54;6.40;;;3.40;;
9248;SDS011;4660;41.768;26.198;2022-07-29T06:14:19;4.13;;;3.70;;
9248;SDS011;4660;41.768;26.198;2022-07-29T06:16:45;4.00;;;3.60;;
9248;SDS011;4660;41.768;26.198;2022-07-29T06:19:11;6.20;;;3.20;;
9248;SDS011;4660;41.768;26.198;2022-07-29T06:21:40;8.80;;;3.47;;
9248;SDS011;4660;41.768;26.198;2022-07-29T06:24:07;8.75;;;3.88;;
9248;SDS011;4660;41.768;26.198;2022-07-29T06:26:33;6.68;;;3.63;;
9248;SDS011;4660;41.768;26.198;2022-07-29T06:28:58;3.70;;;3.20;;
9248;SDS011;4660;41.768;26.198;2022-07-29T06:31:24;6.45;;;3.92;;
9248;SDS011;4660;41.768;26.198;2022-07-29T06:33:49;6.97;;;3.72;;
9248;SDS011;4660;41.768;26.198;2022-07-29T06:36:15;4.97;;;3.55;;
9248;SDS011;4660;41.768;26.198;2022-07-29T06:38:41;8.52;;;4.00;;
9248;SDS011;4660;41.768;26.198;2022-07-29T06:41:07;4.40;;;3.40;;
9248;SDS011;4660;41.768;26.198;2022-07-29T06:43:40;8.63;;;4.50;;
9248;SDS011;4660;41.768;26.198;2022-07-29T06:46:08;5.32;;;3.50;;
9248;SDS011;4660;41.768;26.198;2022-07-29T06:48:39;3.95;;;3.33;;
9248;SDS011;4660;41.768;26.198;2022-07-29T06:51:06;3.85;;;3.55;;
9248;SDS011;4660;41.768;26.198;2022-07-29T06:53:32;6.15;;;3.60;;
9248;SDS011;4660;41.768;26.198;2022-07-29T06:55:59;3.72;;;3.42;;
9248;SDS011;4660;41.768;26.198;2022-07-29T06:58:27;3.53;;;3.22;;
9248;SDS011;4660;41.768;26.198;2022-07-29T07:00:53;3.10;;;2.90;;
9248;SDS011;4660;41.768;26.198;2022-07-29T07:03:19;4.57;;;3.20;;
9248;SDS011;4660;41.768;26.198;2022-07-29T07:05:45;3.58;;;3.28;;
9248;SDS011;4660;41.768;26.198;2022-07-29T07:08:11;4.97;;;3.15;;
9248;SDS011;4660;41.768;26.198;2022-07-29T07:10:38;3.42;;;3.13;;
9248;SDS011;4660;41.768;26.198;2022-07-29T07:13:05;3.33;;;3.03;;
9248;SDS011;4660;41.768;26.198;2022-07-29T07:15:31;4.10;;;3.33;;
9248;SDS011;4660;41.768;26.198;2022-07-29T07:17:56;3.63;;;3.08;;
9248;SDS011;4660;41.768;26.198;2022-07-29T07:20:25;3.05;;;2.83;;
9248;SDS011;4660;41.768;26.198;2022-07-29T07:22:50;3.42;;;2.85;;
9248;SDS011;4660;41.768;26.198;2022-07-29T07:25:16;4.95;;;2.83;;
9248;SDS011;4660;41.768;26.198;2022-07-29T07:27:43;5.28;;;3.05;;
9248;SDS011;4660;41.768;26.198;2022-07-29T07:30:10;6.88;;;2.65;;
9248;SDS011;4660;41.768;26.198;2022-07-29T07:32:36;2.35;;;2.15;;
9248;SDS011;4660;41.768;26.198;2022-07-29T07:35:05;2.50;;;2.20;;
9248;SDS011;4660;41.768;26.198;2022-07-29T07:37:32;3.50;;;2.55;;
9248;SDS011;4660;41.768;26.198;2022-07-29T07:39:59;5.72;;;2.80;;
9248;SDS011;4660;41.768;26.198;2022-07-29T07:42:25;4.68;;;2.90;;
9248;SDS011;4660;41.768;26.198;2022-07-29T07:44:51;2.47;;;2.28;;
9248;SDS011;4660;41.768;26.198;2022-07-29T07:47:16;4.03;;;2.30;;
9248;SDS011;4660;41.768;26.198;2022-07-29T07:49:48;2.45;;;2.20;;
9248;SDS011;4660;41.768;26.198;2022-07-29T07:52:18;3.55;;;2.50;;
9248;SDS011;4660;41.768;26.198;2022-07-29T07:54:49;2.95;;;2.72;;
9248;SDS011;4660;41.768;26.198;2022-07-29T07:57:15;2.97;;;2.78;;
9248;SDS011;4660;41.768;26.198;2022-07-29T07:59:42;3.20;;;2.80;;
9248;SDS011;4660;41.768;26.198;2022-07-29T08:02:08;2.40;;;2.13;;
9248;SDS011;4660;41.768;26.198;2022-07-29T08:04:34;3.70;;;2.70;;
9248;SDS011;4660;41.768;26.198;2022-07-29T08:07:00;3.20;;;2.72;;
9248;SDS011;4660;41.768;26.198;2022-07-29T08:09:26;2.97;;;2.70;;
9248;SDS011;4660;41.768;26.198;2022-07-29T08:11:53;4.20;;;2.38;;
9248;SDS011;4660;41.768;26.198;2022-07-29T08:14:19;9.52;;;2.97;;
9248;SDS011;4660;41.768;26.198;2022-07-29T08:16:45;3.53;;;2.75;;
9248;SDS011;4660;41.768;26.198;2022-07-29T08:19:10;4.15;;;2.58;;
9248;SDS011;4660;41.768;26.198;2022-07-29T08:21:36;2.47;;;2.28;;
9248;SDS011;4660;41.768;26.198;2022-07-29T08:24:02;4.35;;;2.50;;
9248;SDS011;4660;41.768;26.198;2022-07-29T08:26:47;3.13;;;2.80;;
9248;SDS011;4660;41.768;26.198;2022-07-29T08:29:12;3.38;;;2.33;;
9248;SDS011;4660;41.768;26.198;2022-07-29T08:31:38;3.15;;;2.65;;
9248;SDS011;4660;41.768;26.198;2022-07-29T08:34:05;5.93;;;2.83;;
9248;SDS011;4660;41.768;26.198;2022-07-29T08:36:31;2.40;;;2.25;;
9248;SDS011;4660;41.768;26.198;2022-07-29T08:38:58;2.70;;;2.50;;
9248;SDS011;4660;41.768;26.198;2022-07-29T08:41:25;4.20;;;2.88;;
9248;SDS011;4660;41.768;26.198;2022-07-29T08:43:51;3.20;;;2.38;;
9248;SDS011;4660;41.768;26.198;2022-07-29T08:46:18;2.40;;;2.20;;
9248;SDS011;4660;41.768;26.198;2022-07-29T08:48:45;3.17;;;2.65;;
9248;SDS011;4660;41.768;26.198;2022-07-29T08:51:15;3.72;;;2.70;;
9248;SDS011;4660;41.768;26.198;2022-07-29T08:53:43;3.45;;;2.45;;
9248;SDS011;4660;41.768;26.198;2022-07-29T08:56:14;4.82;;;2.47;;
9248;SDS011;4660;41.768;26.198;2022-07-29T08:58:43;5.80;;;2.80;;
9248;SDS011;4660;41.768;26.198;2022-07-29T09:01:10;3.78;;;2.47;;
9248;SDS011;4660;41.768;26.198;2022-07-29T09:03:39;4.63;;;2.75;;
9248;SDS011;4660;41.768;26.198;2022-07-29T09:06:05;2.83;;;2.63;;
9248;SDS011;4660;41.768;26.198;2022-07-29T09:08:32;4.65;;;2.63;;
9248;SDS011;4660;41.768;26.198;2022-07-29T09:11:00;8.43;;;2.80;;
9248;SDS011;4660;41.768;26.198;2022-07-29T09:13:26;6.18;;;2.47;;
9248;SDS011;4660;41.768;26.198;2022-07-29T09:15:52;2.80;;;2.60;;
9248;SDS011;4660;41.768;26.198;2022-07-29T09:18:38;6.30;;;2.50;;
9248;SDS011;4660;41.768;26.198;2022-07-29T09:21:07;5.55;;;2.70;;
9248;SDS011;4660;41.768;26.198;2022-07-29T09:24:27;2.95;;;2.50;;
9248;SDS011;4660;41.768;26.198;2022-07-29T09:26:45;2.85;;;2.65;;
9248;SDS011;4660;41.768;26.198;2022-07-29T09:29:15;5.05;;;2.28;;
9248;SDS011;4660;41.768;26.198;2022-07-29T09:31:43;2.53;;;2.33;;
9248;SDS011;4660;41.768;26.198;2022-07-29T09:34:12;3.78;;;2.28;;
9248;SDS011;4660;41.768;26.198;2022-07-29T09:36:40;3.63;;;2.38;;
9248;SDS011;4660;41.768;26.198;2022-07-29T09:39:07;3.45;;;2.38;;
9248;SDS011;4660;41.768;26.198;2022-07-29T09:41:52;2.53;;;2.30;;
9248;SDS011;4660;41.768;26.198;2022-07-29T09:44:19;4.22;;;2.28;;
9248;SDS011;4660;41.768;26.198;2022-07-29T09:46:54;2.97;;;2.42;;
9248;SDS011;4660;41.768;26.198;2022-07-29T09:49:19;4.75;;;2.75;;
9248;SDS011;4660;41.768;26.198;2022-07-29T09:51:45;5.78;;;2.35;;
9248;SDS011;4660;41.768;26.198;2022-07-29T09:54:32;4.38;;;2.83;;
9248;SDS011;4660;41.768;26.198;2022-07-29T09:57:08;4.53;;;2.45;;
9248;SDS011;4660;41.768;26.198;2022-07-29T09:59:55;4.93;;;2.40;;
9248;SDS011;4660;41.768;26.198;2022-07-29T10:02:44;3.42;;;2.22;;
9248;SDS011;4660;41.768;26.198;2022-07-29T10:05:16;6.22;;;2.22;;
9248;SDS011;4660;41.768;26.198;2022-07-29T10:07:49;2.67;;;2.20;;
9248;SDS011;4660;41.768;26.198;2022-07-29T10:10:29;2.30;;;2.10;;
9248;SDS011;4660;41.768;26.198;2022-07-29T10:12:57;2.88;;;2.17;;
9248;SDS011;4660;41.768;26.198;2022-07-29T10:15:28;3.50;;;2.08;;
9248;SDS011;4660;41.768;26.198;2022-07-29T10:17:57;2.53;;;2.33;;
9248;SDS011;4660;41.768;26.198;2022-07-29T10:20:24;2.40;;;2.20;;
9248;SDS011;4660;41.768;26.198;2022-07-29T10:22:51;1.95;;;1.85;;
9248;SDS011;4660;41.768;26.198;2022-07-29T10:25:17;2.15;;;1.95;;
9248;SDS011;4660;41.768;26.198;2022-07-29T10:27:46;5.20;;;2.20;;
9248;SDS011;4660;41.768;26.198;2022-07-29T10:30:14;2.22;;;2.00;;
9248;SDS011;4660;41.768;26.198;2022-07-29T10:43:51;4.95;;;2.10;;
9248;SDS011;4660;41.768;26.198;2022-07-29T10:46:18;2.53;;;2.10;;
9248;SDS011;4660;41.768;26.198;2022-07-29T10:51:56;2.53;;;1.90;;
9248;SDS011;4660;41.768;26.198;2022-07-29T10:54:36;2.28;;;2.00;;
9248;SDS011;4660;41.768;26.198;2022-07-29T10:57:11;2.30;;;2.10;;
9248;SDS011;4660;41.768;26.198;2022-07-29T10:59:42;3.75;;;2.25;;
9248;SDS011;4660;41.768;26.198;2022-07-29T11:07:24;2.13;;;1.90;;
9248;SDS011;4660;41.768;26.198;2022-07-29T11:12:48;4.03;;;2.00;;
9248;SDS011;4660;41.768;26.198;2022-07-29T11:15:15;5.63;;;2.10;;
9248;SDS011;4660;41.768;26.198;2022-07-29T11:18:07;3.15;;;2.33;;
9248;SDS011;4660;41.768;26.198;2022-07-29T11:20:40;4.55;;;2.35;;
9248;SDS011;4660;41.768;26.198;2022-07-29T11:23:25;4.47;;;2.08;;
9248;SDS011;4660;41.768;26.198;2022-07-29T11:28:39;2.60;;;1.80;;
9248;SDS011;4660;41.768;26.198;2022-07-29T11:31:07;2.55;;;2.17;;
9248;SDS011;4660;41.768;26.198;2022-07-29T11:33:36;3.15;;;2.30;;
9248;SDS011;4660;41.768;26.198;2022-07-29T11:38:37;8.77;;;2.40;;
9248;SDS011;4660;41.768;26.198;2022-07-29T11:43:52;2.65;;;2.38;;
9248;SDS011;4660;41.768;26.198;2022-07-29T11:46:47;2.53;;;2.30;;
9248;SDS011;4660;41.768;26.198;2022-07-29T11:49:21;2.72;;;2.20;;
9248;SDS011;4660;41.768;26.198;2022-07-29T11:51:52;2.65;;;1.73;;
9248;SDS011;4660;41.768;26.198;2022-07-29T11:54:25;2.72;;;2.20;;
9248;SDS011;4660;41.768;26.198;2022-07-29T11:56:55;2.45;;;2.03;;
9248;SDS011;4660;41.768;26.198;2022-07-29T11:59:24;3.35;;;2.40;;
9248;SDS011;4660;41.768;26.198;2022-07-29T12:01:57;3.72;;;2.28;;
9248;SDS011;4660;41.768;26.198;2022-07-29T12:04:24;5.00;;;2.72;;
9248;SDS011;4660;41.768;26.198;2022-07-29T12:06:52;7.22;;;2.25;;
9248;SDS011;4660;41.768;26.198;2022-07-29T12:09:22;4.00;;;2.13;;
9248;SDS011;4660;41.768;26.198;2022-07-29T12:11:57;2.33;;;1.95;;
9248;SDS011;4660;41.768;26.198;2022-07-29T12:14:28;4.18;;;2.13;;
9248;SDS011;4660;41.768;26.198;2022-07-29T12:16:55;3.00;;;1.83;;
9248;SDS011;4660;41.768;26.198;2022-07-29T12:19:22;2.72;;;1.83;;
9248;SDS011;4660;41.768;26.198;2022-07-29T12:21:49;1.98;;;1.88;;
9248;SDS011;4660;41.768;26.198;2022-07-29T12:24:17;2.35;;;1.90;;
9248;SDS011;4660;41.768;26.198;2022-07-29T12:29:20;3.22;;;2.00;;
9248;SDS011;4660;41.768;26.198;2022-07-29T12:31:50;3.08;;;2.10;;
9248;SDS011;4660;41.768;26.198;2022-07-29T12:34:20;2.45;;;1.83;;
9248;SDS011;4660;41.768;26.198;2022-07-29T12:36:49;2.50;;;2.10;;
9248;SDS011;4660;41.768;26.198;2022-07-29T12:39:16;3.60;;;1.70;;
9248;SDS011;4660;41.768;26.198;2022-07-29T12:41:42;5.88;;;2.17;;
9248;SDS011;4660;41.768;26.198;2022-07-29T12:44:08;5.85;;;2.15;;
9248;SDS011;4660;41.768;26.198;2022-07-29T12:46:37;2.72;;;2.15;;
9248;SDS011;4660;41.768;26.198;2022-07-29T12:49:03;3.63;;;1.95;;
9248;SDS011;4660;41.768;26.198;2022-07-29T12:54:02;2.45;;;1.70;;
9248;SDS011;4660;41.768;26.198;2022-07-29T12:56:36;3.75;;;2.10;;
9248;SDS011;4660;41.768;26.198;2022-07-29T12:59:19;3.25;;;2.17;;
9248;SDS011;4660;41.768;26.198;2022-07-29T13:01:47;2.35;;;2.00;;
9248;SDS011;4660;41.768;26.198;2022-07-29T13:04:31;4.57;;;2.28;;
9248;SDS011;4660;41.768;26.198;2022-07-29T13:07:02;3.97;;;2.05;;
9248;SDS011;4660;41.768;26.198;2022-07-29T13:09:39;2.95;;;1.98;;
9248;SDS011;4660;41.768;26.198;2022-07-29T13:12:07;2.75;;;2.03;;
9248;SDS011;4660;41.768;26.198;2022-07-29T13:14:39;4.38;;;2.50;;
9248;SDS011;4660;41.768;26.198;2022-07-29T13:17:08;2.83;;;2.10;;
9248;SDS011;4660;41.768;26.198;2022-07-29T13:19:41;3.17;;;2.20;;
9248;SDS011;4660;41.768;26.198;2022-07-29T13:22:17;2.55;;;2.10;;
9248;SDS011;4660;41.768;26.198;2022-07-29T13:24:45;2.72;;;2.53;;
9248;SDS011;4660;41.768;26.198;2022-07-29T13:27:11;4.20;;;2.13;;
9248;SDS011;4660;41.768;26.198;2022-07-29T13:29:38;3.78;;;1.98;;
9248;SDS011;4660;41.768;26.198;2022-07-29T13:32:05;4.30;;;2.08;;
9248;SDS011;4660;41.768;26.198;2022-07-29T13:34:31;4.20;;;1.90;;
9248;SDS011;4660;41.768;26.198;2022-07-29T13:36:56;1.85;;;1.75;;
9248;SDS011;4660;41.768;26.198;2022-07-29T13:39:22;3.40;;;2.15;;
9248;SDS011;4660;41.768;26.198;2022-07-29T13:41:48;4.10;;;2.22;;
9248;SDS011;4660;41.768;26.198;2022-07-29T13:44:14;3.15;;;2.47;;
9248;SDS011;4660;41.768;26.198;2022-07-29T13:46:40;2.15;;;1.95;;
9248;SDS011;4660;41.768;26.198;2022-07-29T13:49:07;3.30;;;2.00;;
9248;SDS011;4660;41.768;26.198;2022-07-29T13:51:32;3.08;;;2.13;;
9248;SDS011;4660;41.768;26.198;2022-07-29T13:53:58;4.43;;;2.20;;
9248;SDS011;4660;41.768;26.198;2022-07-29T13:56:25;4.93;;;2.00;;
9248;SDS011;4660;41.768;26.198;2022-07-29T13:58:51;3.33;;;2.10;;
9248;SDS011;4660;41.768;26.198;2022-07-29T14:01:18;2.85;;;2.00;;
9248;SDS011;4660;41.768;26.198;2022-07-29T14:03:44;4.10;;;2.28;;
9248;SDS011;4660;41.768;26.198;2022-07-29T14:06:10;2.60;;;1.90;;
9248;SDS011;4660;41.768;26.198;2022-07-29T14:08:35;5.10;;;2.15;;
9248;SDS011;4660;41.768;26.198;2022-07-29T14:11:02;3.53;;;2.00;;
9248;SDS011;4660;41.768;26.198;2022-07-29T14:13:29;1.92;;;1.60;;
9248;SDS011;4660;41.768;26.198;2022-07-29T14:15:56;2.38;;;1.75;;
9248;SDS011;4660;41.768;26.198;2022-07-29T14:18:24;2.17;;;1.98;;
9248;SDS011;4660;41.768;26.198;2022-07-29T14:20:50;2.97;;;2.30;;
9248;SDS011;4660;41.768;26.198;2022-07-29T14:23:17;2.60;;;2.13;;
9248;SDS011;4660;41.768;26.198;2022-07-29T14:25:43;4.15;;;1.98;;
9248;SDS011;4660;41.768;26.198;2022-07-29T14:28:08;2.53;;;2.10;;
9248;SDS011;4660;41.768;26.198;2022-07-29T14:30:34;3.13;;;1.80;;
9248;SDS011;4660;41.768;26.198;2022-07-29T14:33:00;3.78;;;2.00;;
9248;SDS011;4660;41.768;26.198;2022-07-29T14:35:26;2.75;;;2.00;;
9248;SDS011;4660;41.768;26.198;2022-07-29T14:37:53;2.28;;;1.90;;
9248;SDS011;4660;41.768;26.198;2022-07-29T14:40:20;2.35;;;2.15;;
9248;SDS011;4660;41.768;26.198;2022-07-29T14:42:50;2.45;;;2.10;;
9248;SDS011;4660;41.768;26.198;2022-07-29T14:45:32;2.33;;;1.85;;
9248;SDS011;4660;41.768;26.198;2022-07-29T14:47:58;2.40;;;2.20;;
9248;SDS011;4660;41.768;26.198;2022-07-29T14:50:27;2.53;;;2.03;;
9248;SDS011;4660;41.768;26.198;2022-07-29T14:52:54;2.88;;;2.25;;
9248;SDS011;4660;41.768;26.198;2022-07-29T14:55:21;2.72;;;2.20;;
9248;SDS011;4660;41.768;26.198;2022-07-29T14:57:46;4.88;;;2.30;;
9248;SDS011;4660;41.768;26.198;2022-07-29T15:00:14;2.83;;;1.77;;
9248;SDS011;4660;41.768;26.198;2022-07-29T15:02:40;1.98;;;1.88;;
9248;SDS011;4660;41.768;26.198;2022-07-29T15:05:07;2.40;;;2.15;;
9248;SDS011;4660;41.768;26.198;2022-07-29T15:07:36;3.60;;;2.15;;
9248;SDS011;4660;41.768;26.198;2022-07-29T15:10:04;2.17;;;1.98;;
9248;SDS011;4660;41.768;26.198;2022-07-29T15:12:32;2.17;;;1.98;;
9248;SDS011;4660;41.768;26.198;2022-07-29T15:14:58;2.22;;;2.00;;
9248;SDS011;4660;41.768;26.198;2022-07-29T15:17:25;3.50;;;1.90;;
9248;SDS011;4660;41.768;26.198;2022-07-29T15:19:54;2.20;;;2.00;;
9248;SDS011;4660;41.768;26.198;2022-07-29T15:22:20;3.97;;;2.22;;
9248;SDS011;4660;41.768;26.198;2022-07-29T15:24:48;2.50;;;2.13;;
9248;SDS011;4660;41.768;26.198;2022-07-29T15:27:14;1.92;;;1.83;;
9248;SDS011;4660;41.768;26.198;2022-07-29T15:29:40;2.72;;;1.70;;
9248;SDS011;4660;41.768;26.198;2022-07-29T15:32:07;2.55;;;2.03;;
9248;SDS011;4660;41.768;26.198;2022-07-29T15:34:33;2.30;;;2.00;;
9248;SDS011;4660;41.768;26.198;2022-07-29T15:36:59;3.22;;;2.00;;
9248;SDS011;4660;41.768;26.198;2022-07-29T15:39:25;2.28;;;2.03;;
9248;SDS011;4660;41.768;26.198;2022-07-29T15:41:50;2.10;;;1.90;;
9248;SDS011;4660;41.768;26.198;2022-07-29T15:44:16;3.22;;;1.90;;
9248;SDS011;4660;41.768;26.198;2022-07-29T15:46:42;2.42;;;2.22;;
9248;SDS011;4660;41.768;26.198;2022-07-29T15:49:26;2.28;;;2.10;;
9248;SDS011;4660;41.768;26.198;2022-07-29T15:51:57;2.50;;;2.25;;
9248;SDS011;4660;41.768;26.198;2022-07-29T15:54:28;3.05;;;2.40;;
9248;SDS011;4660;41.768;26.198;2022-07-29T15:56:54;5.47;;;2.40;;
9248;SDS011;4660;41.768;26.198;2022-07-29T15:59:20;2.40;;;2.20;;